Portland International Airport (KPDX) Information & Weather

WARNING: the data listed below is for informational purposes only and should be confirmed from official sources. Data presented here on this page may be out of date, incomplete or wrong.

Name: Portland International Airport
Identifier: KPDX

Coord: 45.5887N 122.5969W
Var: 16°E

Country: United States
Municipality: PORTLAND, OR
Time Zone: (GMT-08:00) America/Los_Angeles

Station Elevation: 31 ft
Pressure Altitude: -142 ft
Density Altitude: -1138 ft
Freezing Level: 3061 ft

Civil Twilight
Morning: 14:55 UTC  (06:55 local)
Evening: 01:53 UTC  (17:53 local)

Flight Category: MVFR (26 days ago)

METAR KPDX 312353Z 08006KT 10SM BKN021 BKN060 06/02 A3009 RMK AO2 SLP189 T00610017 10067 20044 55003= [toggle past 4 hours]

TAF AMD KPDX 052049Z 0521/0618 12008KT P6SM OVC120 FM052300 16007KT P6SM VCSH SCT060 OVC100 FM060000 18010KT 6SM -RA SCT040 OVC080 FM060200 21010KT P6SM -RA BKN025 OVC040 FM060400 24003KT P6SM -SHRA SCT025 BKN040=

Upper Winds

Source   Valid 375 1000 2000 2500 3000 5000 6000 8000 10000 12000 14000 16000 18000 21000 24000 26000 30000 34000 39000 44000 52000 60000
GFS 0521/0600 1509+09 1519+08 1628+07 1736+08 1942+08 2051+06 2152+04 2153+00 2152-05 2153-10 2254-12 2454-14 2454-18 2451-25 2346-31 2244-39 2155-47 2167-57 2259-61 2436-54 2717-56 2606-54

SIGMET/AIRMET

None within 25nm.

PIREP

None within 25nm.

NOTAM

None within 25nm.

Runway Data

Frequencies

Nearby Airports

Nearby Navaids